Terminal Aerodrome Forecast
Issued by NWS

Home | Current Version | Previous Version | Text Only | Print | Product List | Glossary On
Versions: 1 2 3 4 5 6 7 8 9 10 11 12
971
FTUS43 KMQT 281735
TAFCMX
TAF
KCMX 281735Z 2818/2918 16006KT P6SM VCSH OVC070
     FM281900 13006KT P6SM -SHRA VCTS BKN050CB
     FM282000 14005KT P6SM VCSH BKN050
     FM290600 26003KT 5SM BR VCSH BKN020
     FM291000 27007KT P6SM VCSH BKN015
     FM291400 26012KT P6SM OVC015=

USA.gov is the U.S. government's official web portal to all federal, state and local government web resources and services.